createdAt,value
2023-04-23T00:03:41.533Z,7.07
2023-04-23T00:08:43.844Z,6.75
2023-04-23T00:13:47.490Z,8.07
2023-04-23T00:18:49.482Z,7.32
2023-04-23T00:23:51.244Z,7.70
2023-04-23T00:28:53.015Z,5.55
2023-04-23T00:33:54.788Z,8.93
2023-04-23T00:38:56.659Z,8.82
2023-04-23T00:43:58.697Z,6.88
2023-04-23T00:49:00.621Z,5.80
2023-04-23T00:54:03.000Z,6.70
2023-04-23T01:04:21.615Z,8.57
2023-04-23T01:09:24.066Z,10.85
2023-04-23T01:14:26.463Z,8.07
2023-04-23T01:19:28.659Z,9.77
2023-04-23T01:24:31.645Z,7.40
2023-04-23T01:29:34.423Z,14.35
2023-04-23T01:34:36.670Z,7.38
2023-04-23T01:39:38.511Z,6.18
2023-04-23T01:44:41.004Z,6.40
2023-04-23T01:49:43.142Z,16.45
2023-04-23T01:54:45.149Z,7.65
2023-04-23T01:59:46.975Z,9.60
2023-04-23T02:04:50.245Z,7.05
2023-04-23T02:09:52.042Z,8.18
2023-04-23T02:14:54.492Z,5.50
2023-04-23T02:19:56.335Z,16.27
2023-04-23T02:24:59.987Z,8.30
2023-04-23T02:30:02.339Z,14.00
2023-04-23T02:35:06.587Z,13.45
2023-04-23T02:40:09.318Z,7.65
2023-04-23T02:45:12.113Z,4.70
2023-04-23T02:50:13.932Z,10.70
2023-04-23T02:55:16.633Z,11.00
2023-04-23T03:00:18.905Z,10.30
2023-04-23T03:05:22.243Z,9.68
2023-04-23T03:10:24.139Z,12.88
2023-04-23T03:15:27.490Z,6.00
2023-04-23T03:20:29.410Z,4.43
2023-04-23T03:25:31.481Z,8.45
2023-04-23T03:30:33.785Z,5.45
2023-04-23T03:35:36.258Z,6.78
2023-04-23T03:40:41.080Z,11.25
2023-04-23T03:45:45.333Z,6.70
2023-04-23T03:50:47.478Z,6.00
2023-04-23T03:56:03.949Z,4.95
2023-04-23T04:01:12.418Z,7.47
2023-04-23T04:06:14.241Z,7.57
2023-04-23T04:11:16.203Z,13.38
2023-04-23T04:16:18.109Z,10.13
2023-04-23T04:21:19.953Z,10.23
2023-04-23T04:26:21.772Z,11.73
2023-04-23T04:31:23.545Z,10.98
2023-04-23T04:36:27.354Z,11.43
2023-04-23T04:41:29.207Z,8.10
2023-04-23T04:46:32.025Z,9.25
2023-04-23T04:51:33.938Z,14.82
2023-04-23T04:56:35.777Z,6.78
2023-04-23T05:01:38.092Z,13.45
2023-04-23T05:06:40.172Z,7.70
2023-04-23T05:11:42.002Z,11.35
2023-04-23T05:16:43.894Z,8.52
2023-04-23T05:21:45.751Z,7.72
2023-04-23T05:26:47.546Z,2.88
2023-04-23T05:31:49.347Z,4.07
2023-04-23T05:36:51.145Z,4.65
2023-04-23T05:41:53.764Z,3.15
2023-04-23T05:46:55.919Z,2.67
2023-04-23T05:51:59.392Z,3.97
2023-04-23T05:57:01.472Z,3.90
2023-04-23T06:02:04.603Z,4.85
2023-04-23T06:07:06.912Z,5.30
2023-04-23T06:12:09.948Z,3.40
2023-04-23T06:17:11.753Z,3.63
2023-04-23T06:22:13.597Z,6.95
2023-04-23T06:27:15.422Z,4.30
2023-04-23T06:32:22.052Z,4.75
2023-04-23T06:37:23.948Z,8.80
2023-04-23T06:42:25.928Z,4.43
2023-04-23T06:47:44.996Z,3.60
2023-04-23T06:52:46.878Z,3.95
2023-04-23T06:57:48.636Z,6.53
2023-04-23T07:02:50.689Z,4.50
2023-04-23T07:07:53.349Z,6.18
2023-04-23T07:12:55.233Z,6.03
2023-04-23T07:17:57.120Z,6.22
2023-04-23T07:22:59.802Z,5.25
2023-04-23T07:28:01.770Z,3.15
2023-04-23T07:33:03.742Z,5.55
2023-04-23T07:38:06.036Z,4.13
2023-04-23T07:43:07.874Z,9.05
2023-04-23T07:48:09.692Z,3.58
2023-04-23T07:53:11.549Z,4.35
2023-04-23T07:58:13.346Z,8.40
2023-04-23T08:03:15.230Z,2.33
2023-04-23T08:08:17.184Z,7.22
2023-04-23T08:13:19.534Z,4.75
2023-04-23T08:18:21.322Z,4.22
2023-04-23T08:23:23.542Z,6.35
2023-04-23T08:28:25.356Z,3.20
2023-04-23T08:33:27.277Z,3.42
2023-04-23T08:38:29.076Z,6.18
2023-04-23T08:44:17.348Z,1.90
2023-04-23T08:49:19.611Z,1.65
2023-04-23T08:54:28.878Z,3.25
2023-04-23T08:59:34.529Z,1.67
2023-04-23T09:04:37.851Z,2.90
2023-04-23T09:09:40.832Z,1.25
2023-04-23T09:14:43.238Z,1.10
2023-04-23T09:19:49.178Z,2.47
2023-04-23T09:24:51.833Z,3.80
2023-04-23T09:29:57.345Z,2.50
2023-04-23T09:34:59.499Z,1.30
2023-04-23T09:40:04.364Z,0.55
2023-04-23T09:45:08.431Z,1.35
2023-04-23T09:50:10.810Z,0.98
2023-04-23T09:55:12.587Z,5.28
2023-04-23T10:00:19.677Z,1.02
2023-04-23T10:05:27.113Z,1.65
2023-04-23T10:10:36.362Z,1.38
2023-04-23T10:15:47.641Z,2.28
2023-04-23T10:20:50.745Z,1.38
2023-04-23T10:25:55.741Z,0.70
2023-04-23T10:30:58.356Z,0.88
2023-04-23T10:36:00.989Z,1.15
2023-04-23T10:41:04.138Z,1.52
2023-04-23T10:46:30.169Z,3.25
2023-04-23T10:52:14.727Z,0.75
2023-04-23T10:57:00.275Z,0.95
2023-04-23T11:02:11.924Z,1.48
2023-04-23T11:07:15.164Z,1.00
2023-04-23T11:12:32.681Z,0.98
2023-04-23T11:17:35.381Z,0.55
2023-04-23T11:22:39.625Z,2.38
2023-04-23T11:27:43.524Z,9.95
2023-04-23T11:32:50.169Z,2.90
2023-04-23T11:37:52.049Z,1.80
2023-04-23T11:42:57.773Z,0.95
2023-04-23T11:48:01.131Z,1.63
2023-04-23T11:53:08.027Z,0.55
2023-04-23T11:58:10.923Z,2.13
2023-04-23T12:03:14.084Z,0.70
2023-04-23T12:08:18.028Z,2.13
2023-04-23T12:13:23.457Z,0.88
2023-04-23T12:18:40.484Z,1.60
2023-04-23T12:23:45.235Z,1.45
2023-04-23T12:28:50.994Z,0.95
2023-04-23T12:34:06.884Z,2.13
2023-04-23T12:39:27.626Z,1.17
2023-04-23T12:49:32.332Z,0.55
2023-04-23T12:54:41.298Z,2.75
2023-04-23T12:59:43.393Z,1.63
2023-04-23T13:04:45.505Z,1.20
2023-04-23T13:09:47.283Z,2.28
2023-04-23T13:14:49.911Z,1.27
2023-04-23T13:19:54.007Z,1.27
2023-04-23T13:24:59.610Z,3.35
2023-04-23T13:30:01.561Z,1.90
2023-04-23T13:35:05.217Z,4.07
2023-04-23T13:40:07.796Z,0.82
2023-04-23T13:45:09.937Z,1.20
2023-04-23T13:50:12.378Z,1.27
2023-04-23T13:55:14.315Z,0.82
2023-04-23T14:00:16.582Z,1.50
2023-04-23T14:05:18.427Z,1.50
2023-04-23T14:10:20.284Z,1.83
2023-04-23T14:15:22.165Z,1.52
2023-04-23T14:20:24.351Z,1.45
2023-04-23T14:25:41.196Z,2.75
2023-04-23T14:30:43.021Z,4.18
2023-04-23T14:35:44.885Z,1.63
2023-04-23T14:40:46.952Z,1.60
2023-04-23T14:45:48.968Z,1.92
2023-04-23T14:50:51.086Z,2.10
2023-04-23T14:55:52.993Z,3.53
2023-04-23T15:00:54.850Z,4.75
2023-04-23T15:05:56.737Z,1.92
2023-04-23T15:11:00.153Z,1.63
2023-04-23T15:16:07.641Z,1.98
2023-04-23T15:21:09.518Z,3.80
2023-04-23T15:26:11.379Z,1.88
2023-04-23T15:31:13.998Z,3.42
2023-04-23T15:36:16.149Z,4.45
2023-04-23T15:41:19.232Z,2.33
2023-04-23T15:46:21.528Z,2.13
2023-04-23T15:51:24.892Z,2.45
2023-04-23T15:56:27.228Z,4.15
2023-04-23T16:01:30.185Z,3.22
2023-04-23T16:06:32.531Z,2.78
2023-04-23T16:11:39.051Z,2.38
2023-04-23T16:16:41.525Z,2.40
2023-04-23T16:21:43.490Z,1.70
2023-04-23T16:26:45.859Z,2.15
2023-04-23T16:31:48.276Z,2.85
2023-04-23T16:36:52.467Z,3.05
2023-04-23T16:41:55.989Z,3.47
2023-04-23T16:46:58.367Z,5.45
2023-04-23T16:52:02.224Z,6.70
2023-04-23T16:57:06.133Z,15.75
2023-04-23T17:02:08.428Z,8.18
2023-04-23T17:07:11.040Z,13.50
2023-04-23T17:12:13.551Z,7.25
2023-04-23T17:17:16.133Z,8.40
2023-04-23T17:22:18.506Z,14.48
2023-04-23T17:27:20.448Z,14.52
2023-04-23T17:32:22.737Z,9.82
2023-04-23T17:37:24.563Z,9.50
2023-04-23T17:42:26.380Z,8.13
2023-04-23T17:47:29.242Z,8.43
2023-04-23T17:52:31.854Z,10.38
2023-04-23T17:57:33.797Z,7.43
2023-04-23T18:02:40.375Z,15.10
2023-04-23T18:07:43.813Z,7.03
2023-04-23T18:12:45.991Z,12.18
2023-04-23T18:17:48.264Z,6.15
2023-04-23T18:22:50.197Z,4.38
2023-04-23T18:27:52.487Z,5.03
2023-04-23T18:33:32.285Z,5.07
2023-04-23T18:38:47.395Z,4.28
2023-04-23T18:43:49.470Z,5.82
2023-04-23T18:48:58.699Z,4.90
2023-04-23T18:54:01.920Z,6.75
2023-04-23T18:59:03.992Z,7.53
2023-04-23T19:04:06.785Z,6.85
2023-04-23T19:09:09.098Z,5.80
2023-04-23T19:14:11.127Z,5.32
2023-04-23T19:19:13.755Z,4.97
2023-04-23T19:24:15.803Z,9.23
2023-04-23T19:29:17.989Z,12.20
2023-04-23T19:34:19.869Z,7.88
2023-04-23T19:39:23.755Z,5.47
2023-04-23T19:44:25.642Z,6.32
2023-04-23T19:49:27.602Z,6.10
2023-04-23T19:54:29.462Z,7.85
2023-04-23T19:59:31.271Z,7.38
2023-04-23T20:04:33.345Z,6.82
2023-04-23T20:09:35.878Z,6.40
2023-04-23T20:14:37.779Z,5.30
2023-04-23T20:19:39.957Z,17.90
2023-04-23T20:24:46.358Z,5.30
2023-04-23T20:29:48.464Z,6.15
2023-04-23T20:34:50.491Z,5.88
2023-04-23T20:39:53.335Z,6.38
2023-04-23T20:44:55.164Z,6.18
2023-04-23T20:49:56.934Z,9.70
2023-04-23T20:54:58.736Z,4.78
2023-04-23T21:00:00.551Z,3.75
2023-04-23T21:05:02.341Z,6.47
2023-04-23T21:10:05.427Z,5.55
2023-04-23T21:15:08.453Z,6.72
2023-04-23T21:20:10.433Z,7.50
2023-04-23T21:25:12.207Z,4.95
2023-04-23T21:30:28.680Z,4.70
2023-04-23T21:35:30.769Z,4.93
2023-04-23T21:40:34.456Z,4.50
2023-04-23T21:45:36.321Z,5.70
2023-04-23T21:50:38.090Z,6.78
2023-04-23T21:55:39.910Z,6.70
2023-04-23T22:00:43.360Z,8.52
2023-04-23T22:05:45.843Z,8.27
2023-04-23T22:10:47.636Z,8.40
2023-04-23T22:15:49.436Z,9.55
2023-04-23T22:20:52.941Z,12.35
2023-04-23T22:25:54.766Z,11.02
2023-04-23T22:30:56.761Z,10.38
2023-04-23T22:35:59.879Z,13.07
2023-04-23T22:41:02.286Z,16.77
2023-04-23T22:46:04.250Z,13.25
2023-04-23T22:51:07.028Z,12.85
2023-04-23T22:56:08.938Z,14.68
2023-04-23T23:01:11.140Z,11.02
2023-04-23T23:06:12.922Z,12.13
2023-04-23T23:11:14.760Z,9.38
2023-04-23T23:16:18.104Z,9.25
2023-04-23T23:21:20.651Z,10.00
2023-04-23T23:26:22.435Z,9.85
2023-04-23T23:31:26.313Z,8.93
2023-04-23T23:36:28.189Z,8.85
2023-04-23T23:41:30.062Z,5.88
2023-04-23T23:46:31.950Z,7.10
2023-04-23T23:51:34.393Z,6.07
2023-04-23T23:56:36.221Z,8.20
